sensor_id;sensor_type;location;lat;lon;timestamp;P1;durP1;ratioP1;P2;durP2;ratioP2
5585;SDS011;2815;54.094;12.112;2022-11-15T00:02:26;77.40;;;26.00;;
5585;SDS011;2815;54.094;12.112;2022-11-15T00:05:12;74.93;;;26.45;;
5585;SDS011;2815;54.094;12.112;2022-11-15T00:07:59;66.72;;;23.27;;
5585;SDS011;2815;54.094;12.112;2022-11-15T00:10:53;73.85;;;25.38;;
5585;SDS011;2815;54.094;12.112;2022-11-15T00:13:40;71.38;;;26.55;;
5585;SDS011;2815;54.094;12.112;2022-11-15T00:16:27;70.70;;;24.83;;
5585;SDS011;2815;54.094;12.112;2022-11-15T00:19:14;77.50;;;24.52;;
5585;SDS011;2815;54.094;12.112;2022-11-15T00:22:01;76.18;;;25.73;;
5585;SDS011;2815;54.094;12.112;2022-11-15T00:24:48;63.65;;;24.55;;
5585;SDS011;2815;54.094;12.112;2022-11-15T00:27:34;71.40;;;24.88;;
5585;SDS011;2815;54.094;12.112;2022-11-15T00:30:20;69.80;;;24.67;;
5585;SDS011;2815;54.094;12.112;2022-11-15T00:33:08;68.05;;;25.02;;
5585;SDS011;2815;54.094;12.112;2022-11-15T00:36:00;72.60;;;25.60;;
5585;SDS011;2815;54.094;12.112;2022-11-15T00:38:47;78.53;;;26.50;;
5585;SDS011;2815;54.094;12.112;2022-11-15T00:41:33;69.22;;;24.52;;
5585;SDS011;2815;54.094;12.112;2022-11-15T00:44:20;86.63;;;26.10;;
5585;SDS011;2815;54.094;12.112;2022-11-15T00:47:07;67.55;;;24.58;;
5585;SDS011;2815;54.094;12.112;2022-11-15T00:49:53;69.50;;;25.77;;
5585;SDS011;2815;54.094;12.112;2022-11-15T00:52:42;70.63;;;26.23;;
5585;SDS011;2815;54.094;12.112;2022-11-15T00:55:28;74.85;;;25.35;;
5585;SDS011;2815;54.094;12.112;2022-11-15T00:58:15;65.72;;;24.05;;
5585;SDS011;2815;54.094;12.112;2022-11-15T01:01:05;70.85;;;25.52;;
5585;SDS011;2815;54.094;12.112;2022-11-15T01:03:53;77.70;;;25.67;;
5585;SDS011;2815;54.094;12.112;2022-11-15T01:06:45;71.57;;;25.33;;
5585;SDS011;2815;54.094;12.112;2022-11-15T01:09:33;77.72;;;25.63;;
5585;SDS011;2815;54.094;12.112;2022-11-15T01:12:20;64.07;;;24.60;;
5585;SDS011;2815;54.094;12.112;2022-11-15T01:15:07;67.57;;;25.38;;
5585;SDS011;2815;54.094;12.112;2022-11-15T01:17:54;83.53;;;25.10;;
5585;SDS011;2815;54.094;12.112;2022-11-15T01:20:41;77.53;;;25.60;;
5585;SDS011;2815;54.094;12.112;2022-11-15T01:23:28;66.13;;;24.88;;
5585;SDS011;2815;54.094;12.112;2022-11-15T01:26:17;68.30;;;23.08;;
5585;SDS011;2815;54.094;12.112;2022-11-15T01:29:04;66.03;;;21.25;;
5585;SDS011;2815;54.094;12.112;2022-11-15T01:31:52;62.60;;;23.85;;
5585;SDS011;2815;54.094;12.112;2022-11-15T01:34:38;66.32;;;24.38;;
5585;SDS011;2815;54.094;12.112;2022-11-15T01:37:25;64.68;;;25.02;;
5585;SDS011;2815;54.094;12.112;2022-11-15T01:40:12;72.95;;;25.33;;
5585;SDS011;2815;54.094;12.112;2022-11-15T01:46:13;67.43;;;24.40;;
5585;SDS011;2815;54.094;12.112;2022-11-15T01:49:11;70.60;;;25.00;;
5585;SDS011;2815;54.094;12.112;2022-11-15T01:51:58;57.40;;;21.75;;
5585;SDS011;2815;54.094;12.112;2022-11-15T01:54:47;63.22;;;24.33;;
5585;SDS011;2815;54.094;12.112;2022-11-15T01:57:35;66.45;;;24.92;;
5585;SDS011;2815;54.094;12.112;2022-11-15T02:00:24;62.63;;;23.67;;
5585;SDS011;2815;54.094;12.112;2022-11-15T02:03:11;82.55;;;25.38;;
5585;SDS011;2815;54.094;12.112;2022-11-15T02:05:58;66.07;;;24.40;;
5585;SDS011;2815;54.094;12.112;2022-11-15T02:08:45;64.80;;;25.25;;
5585;SDS011;2815;54.094;12.112;2022-11-15T02:11:31;68.35;;;25.45;;
5585;SDS011;2815;54.094;12.112;2022-11-15T02:14:18;61.28;;;22.23;;
5585;SDS011;2815;54.094;12.112;2022-11-15T02:17:11;68.03;;;25.75;;
5585;SDS011;2815;54.094;12.112;2022-11-15T02:30:12;65.50;;;23.98;;
5585;SDS011;2815;54.094;12.112;2022-11-15T02:33:03;61.33;;;23.25;;
5585;SDS011;2815;54.094;12.112;2022-11-15T02:35:57;63.30;;;23.98;;
5585;SDS011;2815;54.094;12.112;2022-11-15T02:38:46;63.75;;;23.83;;
5585;SDS011;2815;54.094;12.112;2022-11-15T02:41:38;71.63;;;24.77;;
5585;SDS011;2815;54.094;12.112;2022-11-15T02:44:27;65.82;;;25.00;;
5585;SDS011;2815;54.094;12.112;2022-11-15T02:47:18;62.78;;;24.60;;
5585;SDS011;2815;54.094;12.112;2022-11-15T02:50:06;69.18;;;24.38;;
5585;SDS011;2815;54.094;12.112;2022-11-15T02:52:55;67.07;;;24.92;;
5585;SDS011;2815;54.094;12.112;2022-11-15T02:55:43;69.20;;;23.95;;
5585;SDS011;2815;54.094;12.112;2022-11-15T02:58:38;66.10;;;23.60;;
5585;SDS011;2815;54.094;12.112;2022-11-15T03:01:47;71.40;;;22.52;;
5585;SDS011;2815;54.094;12.112;2022-11-15T03:04:43;65.15;;;23.73;;
5585;SDS011;2815;54.094;12.112;2022-11-15T03:07:32;61.88;;;23.30;;
5585;SDS011;2815;54.094;12.112;2022-11-15T03:10:23;64.55;;;23.35;;
5585;SDS011;2815;54.094;12.112;2022-11-15T03:13:14;68.35;;;23.75;;
5585;SDS011;2815;54.094;12.112;2022-11-15T03:16:06;69.13;;;24.20;;
5585;SDS011;2815;54.094;12.112;2022-11-15T03:18:55;60.78;;;22.80;;
5585;SDS011;2815;54.094;12.112;2022-11-15T03:21:47;59.92;;;24.08;;
5585;SDS011;2815;54.094;12.112;2022-11-15T03:24:34;64.20;;;23.38;;
5585;SDS011;2815;54.094;12.112;2022-11-15T03:27:24;63.80;;;23.15;;
5585;SDS011;2815;54.094;12.112;2022-11-15T03:30:13;64.85;;;22.67;;
5585;SDS011;2815;54.094;12.112;2022-11-15T03:33:00;68.28;;;24.52;;
5585;SDS011;2815;54.094;12.112;2022-11-15T03:35:48;60.92;;;22.92;;
5585;SDS011;2815;54.094;12.112;2022-11-15T03:38:37;61.60;;;22.13;;
5585;SDS011;2815;54.094;12.112;2022-11-15T03:41:25;67.53;;;23.63;;
5585;SDS011;2815;54.094;12.112;2022-11-15T03:44:15;70.18;;;23.80;;
5585;SDS011;2815;54.094;12.112;2022-11-15T03:47:07;56.28;;;22.05;;
5585;SDS011;2815;54.094;12.112;2022-11-15T03:49:57;65.00;;;23.70;;
5585;SDS011;2815;54.094;12.112;2022-11-15T03:52:46;64.78;;;23.05;;
5585;SDS011;2815;54.094;12.112;2022-11-15T03:55:34;55.90;;;21.67;;
5585;SDS011;2815;54.094;12.112;2022-11-15T03:58:21;62.47;;;22.58;;
5585;SDS011;2815;54.094;12.112;2022-11-15T04:01:08;60.55;;;23.42;;
5585;SDS011;2815;54.094;12.112;2022-11-15T04:03:54;63.97;;;24.38;;
5585;SDS011;2815;54.094;12.112;2022-11-15T04:06:41;64.50;;;23.10;;
5585;SDS011;2815;54.094;12.112;2022-11-15T04:09:28;62.28;;;22.77;;
5585;SDS011;2815;54.094;12.112;2022-11-15T04:12:15;68.88;;;24.58;;
5585;SDS011;2815;54.094;12.112;2022-11-15T04:15:15;56.67;;;22.38;;
5585;SDS011;2815;54.094;12.112;2022-11-15T04:18:03;57.35;;;22.10;;
5585;SDS011;2815;54.094;12.112;2022-11-15T04:20:49;67.55;;;24.25;;
5585;SDS011;2815;54.094;12.112;2022-11-15T04:23:53;58.22;;;21.33;;
5585;SDS011;2815;54.094;12.112;2022-11-15T04:26:58;50.85;;;20.90;;
5585;SDS011;2815;54.094;12.112;2022-11-15T04:29:46;63.67;;;23.25;;
5585;SDS011;2815;54.094;12.112;2022-11-15T04:32:32;59.08;;;21.98;;
5585;SDS011;2815;54.094;12.112;2022-11-15T04:35:19;60.65;;;22.92;;
5585;SDS011;2815;54.094;12.112;2022-11-15T04:38:07;61.40;;;22.30;;
5585;SDS011;2815;54.094;12.112;2022-11-15T04:40:55;58.10;;;22.25;;
5585;SDS011;2815;54.094;12.112;2022-11-15T04:43:41;54.42;;;19.85;;
5585;SDS011;2815;54.094;12.112;2022-11-15T04:46:29;60.83;;;23.52;;
5585;SDS011;2815;54.094;12.112;2022-11-15T04:49:15;68.28;;;24.33;;
5585;SDS011;2815;54.094;12.112;2022-11-15T04:52:02;58.15;;;21.40;;
5585;SDS011;2815;54.094;12.112;2022-11-15T04:54:49;63.35;;;23.38;;
5585;SDS011;2815;54.094;12.112;2022-11-15T04:57:35;63.22;;;23.45;;
5585;SDS011;2815;54.094;12.112;2022-11-15T05:00:21;57.47;;;21.33;;
5585;SDS011;2815;54.094;12.112;2022-11-15T05:03:10;61.63;;;23.88;;
5585;SDS011;2815;54.094;12.112;2022-11-15T05:06:14;63.83;;;22.92;;
5585;SDS011;2815;54.094;12.112;2022-11-15T05:09:01;63.80;;;23.80;;
5585;SDS011;2815;54.094;12.112;2022-11-15T05:11:47;61.85;;;23.05;;
5585;SDS011;2815;54.094;12.112;2022-11-15T05:14:33;69.63;;;24.35;;
5585;SDS011;2815;54.094;12.112;2022-11-15T05:17:20;61.40;;;23.05;;
5585;SDS011;2815;54.094;12.112;2022-11-15T05:20:09;69.93;;;22.70;;
5585;SDS011;2815;54.094;12.112;2022-11-15T05:22:56;66.78;;;23.25;;
5585;SDS011;2815;54.094;12.112;2022-11-15T05:25:42;66.93;;;22.13;;
5585;SDS011;2815;54.094;12.112;2022-11-15T05:28:29;58.67;;;22.45;;
5585;SDS011;2815;54.094;12.112;2022-11-15T05:31:15;58.05;;;23.75;;
5585;SDS011;2815;54.094;12.112;2022-11-15T05:34:02;62.83;;;21.33;;
5585;SDS011;2815;54.094;12.112;2022-11-15T05:36:52;62.28;;;23.50;;
5585;SDS011;2815;54.094;12.112;2022-11-15T05:39:38;56.80;;;21.52;;
5585;SDS011;2815;54.094;12.112;2022-11-15T05:42:25;59.42;;;23.20;;
5585;SDS011;2815;54.094;12.112;2022-11-15T05:45:12;64.82;;;22.48;;
5585;SDS011;2815;54.094;12.112;2022-11-15T05:47:59;67.55;;;22.35;;
5585;SDS011;2815;54.094;12.112;2022-11-15T05:50:46;56.20;;;21.20;;
5585;SDS011;2815;54.094;12.112;2022-11-15T05:53:35;62.20;;;23.70;;
5585;SDS011;2815;54.094;12.112;2022-11-15T05:56:22;59.78;;;22.90;;
5585;SDS011;2815;54.094;12.112;2022-11-15T05:59:09;55.25;;;22.13;;
5585;SDS011;2815;54.094;12.112;2022-11-15T06:01:56;55.40;;;22.42;;
5585;SDS011;2815;54.094;12.112;2022-11-15T06:04:43;60.38;;;23.40;;
5585;SDS011;2815;54.094;12.112;2022-11-15T06:07:30;63.50;;;23.15;;
5585;SDS011;2815;54.094;12.112;2022-11-15T06:10:18;56.70;;;22.05;;
5585;SDS011;2815;54.094;12.112;2022-11-15T06:13:05;53.28;;;21.25;;
5585;SDS011;2815;54.094;12.112;2022-11-15T06:15:54;61.00;;;23.50;;
5585;SDS011;2815;54.094;12.112;2022-11-15T06:18:41;63.63;;;23.50;;
5585;SDS011;2815;54.094;12.112;2022-11-15T06:21:28;57.75;;;21.73;;
5585;SDS011;2815;54.094;12.112;2022-11-15T06:24:14;56.08;;;23.02;;
5585;SDS011;2815;54.094;12.112;2022-11-15T06:27:02;61.03;;;22.05;;
5585;SDS011;2815;54.094;12.112;2022-11-15T06:29:49;52.20;;;21.60;;
5585;SDS011;2815;54.094;12.112;2022-11-15T06:32:36;55.72;;;23.17;;
5585;SDS011;2815;54.094;12.112;2022-11-15T06:35:22;59.97;;;22.95;;
5585;SDS011;2815;54.094;12.112;2022-11-15T06:38:09;52.78;;;21.17;;
5585;SDS011;2815;54.094;12.112;2022-11-15T06:41:00;56.13;;;21.23;;
5585;SDS011;2815;54.094;12.112;2022-11-15T06:43:48;57.97;;;22.73;;
5585;SDS011;2815;54.094;12.112;2022-11-15T06:46:35;54.45;;;22.35;;
5585;SDS011;2815;54.094;12.112;2022-11-15T06:49:22;59.95;;;22.42;;
5585;SDS011;2815;54.094;12.112;2022-11-15T06:52:08;57.38;;;22.10;;
5585;SDS011;2815;54.094;12.112;2022-11-15T06:54:55;52.13;;;21.77;;
5585;SDS011;2815;54.094;12.112;2022-11-15T06:57:46;55.28;;;21.92;;
5585;SDS011;2815;54.094;12.112;2022-11-15T07:00:34;56.75;;;21.17;;
5585;SDS011;2815;54.094;12.112;2022-11-15T07:03:21;63.80;;;23.60;;
5585;SDS011;2815;54.094;12.112;2022-11-15T07:06:08;62.17;;;22.77;;
5585;SDS011;2815;54.094;12.112;2022-11-15T07:08:55;57.40;;;22.95;;
5585;SDS011;2815;54.094;12.112;2022-11-15T07:11:41;53.63;;;21.67;;
5585;SDS011;2815;54.094;12.112;2022-11-15T07:14:27;57.50;;;22.40;;
5585;SDS011;2815;54.094;12.112;2022-11-15T07:17:15;59.35;;;21.85;;
5585;SDS011;2815;54.094;12.112;2022-11-15T07:20:02;64.70;;;23.55;;
5585;SDS011;2815;54.094;12.112;2022-11-15T07:22:49;55.72;;;22.73;;
5585;SDS011;2815;54.094;12.112;2022-11-15T07:25:35;55.40;;;22.35;;
5585;SDS011;2815;54.094;12.112;2022-11-15T07:28:22;65.70;;;23.13;;
5585;SDS011;2815;54.094;12.112;2022-11-15T07:31:09;55.85;;;22.17;;
5585;SDS011;2815;54.094;12.112;2022-11-15T07:33:56;55.97;;;22.75;;
5585;SDS011;2815;54.094;12.112;2022-11-15T07:36:43;58.50;;;22.30;;
5585;SDS011;2815;54.094;12.112;2022-11-15T07:39:29;61.63;;;22.65;;
5585;SDS011;2815;54.094;12.112;2022-11-15T07:42:16;64.28;;;23.17;;
5585;SDS011;2815;54.094;12.112;2022-11-15T07:45:21;53.53;;;21.92;;
5585;SDS011;2815;54.094;12.112;2022-11-15T07:48:11;55.30;;;23.63;;
5585;SDS011;2815;54.094;12.112;2022-11-15T07:50:59;68.70;;;24.05;;
5585;SDS011;2815;54.094;12.112;2022-11-15T07:53:46;55.78;;;22.85;;
5585;SDS011;2815;54.094;12.112;2022-11-15T07:56:32;60.38;;;23.20;;
5585;SDS011;2815;54.094;12.112;2022-11-15T07:59:19;61.13;;;23.52;;
5585;SDS011;2815;54.094;12.112;2022-11-15T08:02:06;51.78;;;22.08;;
5585;SDS011;2815;54.094;12.112;2022-11-15T08:04:54;52.03;;;22.25;;
5585;SDS011;2815;54.094;12.112;2022-11-15T08:07:42;56.33;;;23.50;;
5585;SDS011;2815;54.094;12.112;2022-11-15T08:10:29;55.45;;;21.85;;
5585;SDS011;2815;54.094;12.112;2022-11-15T08:13:21;59.70;;;23.80;;
5585;SDS011;2815;54.094;12.112;2022-11-15T08:16:08;54.42;;;23.42;;
5585;SDS011;2815;54.094;12.112;2022-11-15T08:18:56;60.85;;;22.70;;
5585;SDS011;2815;54.094;12.112;2022-11-15T08:21:44;60.95;;;22.05;;
5585;SDS011;2815;54.094;12.112;2022-11-15T08:24:32;55.72;;;22.92;;
5585;SDS011;2815;54.094;12.112;2022-11-15T08:27:18;57.67;;;21.90;;
5585;SDS011;2815;54.094;12.112;2022-11-15T08:30:05;63.88;;;24.15;;
5585;SDS011;2815;54.094;12.112;2022-11-15T08:32:53;57.83;;;21.80;;
5585;SDS011;2815;54.094;12.112;2022-11-15T08:35:40;56.30;;;22.38;;
5585;SDS011;2815;54.094;12.112;2022-11-15T08:38:26;52.17;;;22.63;;
5585;SDS011;2815;54.094;12.112;2022-11-15T08:41:19;43.50;;;18.20;;
5585;SDS011;2815;54.094;12.112;2022-11-15T08:44:10;60.80;;;23.13;;
5585;SDS011;2815;54.094;12.112;2022-11-15T08:46:57;54.30;;;22.38;;
5585;SDS011;2815;54.094;12.112;2022-11-15T08:49:43;50.22;;;22.20;;
5585;SDS011;2815;54.094;12.112;2022-11-15T08:52:30;57.28;;;24.05;;
5585;SDS011;2815;54.094;12.112;2022-11-15T08:55:16;54.33;;;21.88;;
5585;SDS011;2815;54.094;12.112;2022-11-15T08:58:04;59.45;;;22.10;;
5585;SDS011;2815;54.094;12.112;2022-11-15T09:00:50;63.45;;;22.58;;
5585;SDS011;2815;54.094;12.112;2022-11-15T09:03:39;49.00;;;20.33;;
5585;SDS011;2815;54.094;12.112;2022-11-15T09:06:25;46.45;;;20.15;;
5585;SDS011;2815;54.094;12.112;2022-11-15T09:09:12;52.55;;;21.60;;
5585;SDS011;2815;54.094;12.112;2022-11-15T09:11:59;48.05;;;19.98;;
5585;SDS011;2815;54.094;12.112;2022-11-15T09:14:48;42.80;;;17.90;;
5585;SDS011;2815;54.094;12.112;2022-11-15T09:17:35;50.97;;;20.60;;
5585;SDS011;2815;54.094;12.112;2022-11-15T09:20:21;47.45;;;20.55;;
5585;SDS011;2815;54.094;12.112;2022-11-15T09:23:07;48.85;;;20.65;;
5585;SDS011;2815;54.094;12.112;2022-11-15T09:25:57;52.17;;;21.42;;
5585;SDS011;2815;54.094;12.112;2022-11-15T09:28:44;54.33;;;21.58;;
5585;SDS011;2815;54.094;12.112;2022-11-15T09:31:32;53.28;;;20.40;;
5585;SDS011;2815;54.094;12.112;2022-11-15T09:34:18;50.47;;;20.50;;
5585;SDS011;2815;54.094;12.112;2022-11-15T09:37:05;46.63;;;19.35;;
5585;SDS011;2815;54.094;12.112;2022-11-15T09:39:52;47.40;;;19.60;;
5585;SDS011;2815;54.094;12.112;2022-11-15T09:42:45;51.53;;;21.35;;
5585;SDS011;2815;54.094;12.112;2022-11-15T09:45:37;50.50;;;21.23;;
5585;SDS011;2815;54.094;12.112;2022-11-15T09:48:37;50.88;;;21.63;;
5585;SDS011;2815;54.094;12.112;2022-11-15T09:51:47;46.40;;;20.17;;
5585;SDS011;2815;54.094;12.112;2022-11-15T09:54:21;47.65;;;20.35;;
5585;SDS011;2815;54.094;12.112;2022-11-15T09:57:15;47.65;;;20.38;;
5585;SDS011;2815;54.094;12.112;2022-11-15T09:59:58;45.50;;;20.55;;
5585;SDS011;2815;54.094;12.112;2022-11-15T10:03:06;46.13;;;19.77;;
5585;SDS011;2815;54.094;12.112;2022-11-15T10:05:39;51.30;;;20.20;;
5585;SDS011;2815;54.094;12.112;2022-11-15T10:11:11;43.10;;;18.73;;
5585;SDS011;2815;54.094;12.112;2022-11-15T10:14:05;47.13;;;20.08;;
5585;SDS011;2815;54.094;12.112;2022-11-15T10:19:38;45.35;;;19.67;;
5585;SDS011;2815;54.094;12.112;2022-11-15T10:22:21;37.58;;;18.50;;
5585;SDS011;2815;54.094;12.112;2022-11-15T10:24:58;39.40;;;18.38;;
5585;SDS011;2815;54.094;12.112;2022-11-15T10:27:40;45.00;;;18.70;;
5585;SDS011;2815;54.094;12.112;2022-11-15T10:30:10;36.75;;;18.73;;
5585;SDS011;2815;54.094;12.112;2022-11-15T10:32:40;46.30;;;17.55;;
5585;SDS011;2815;54.094;12.112;2022-11-15T10:35:17;36.38;;;16.75;;
5585;SDS011;2815;54.094;12.112;2022-11-15T10:37:48;46.67;;;18.38;;
5585;SDS011;2815;54.094;12.112;2022-11-15T10:40:17;37.00;;;18.00;;
5585;SDS011;2815;54.094;12.112;2022-11-15T10:42:47;39.20;;;17.65;;
5585;SDS011;2815;54.094;12.112;2022-11-15T10:45:26;34.97;;;17.08;;
5585;SDS011;2815;54.094;12.112;2022-11-15T10:48:11;39.78;;;17.58;;
5585;SDS011;2815;54.094;12.112;2022-11-15T10:50:48;36.00;;;17.00;;
5585;SDS011;2815;54.094;12.112;2022-11-15T10:53:19;35.80;;;16.63;;
5585;SDS011;2815;54.094;12.112;2022-11-15T10:55:50;38.38;;;17.55;;
5585;SDS011;2815;54.094;12.112;2022-11-15T10:58:21;40.28;;;17.52;;
5585;SDS011;2815;54.094;12.112;2022-11-15T11:00:55;37.15;;;16.55;;
5585;SDS011;2815;54.094;12.112;2022-11-15T11:03:27;33.55;;;16.02;;
5585;SDS011;2815;54.094;12.112;2022-11-15T11:06:03;30.23;;;15.93;;
5585;SDS011;2815;54.094;12.112;2022-11-15T11:08:34;36.40;;;16.80;;
5585;SDS011;2815;54.094;12.112;2022-11-15T11:11:03;35.50;;;15.57;;
5585;SDS011;2815;54.094;12.112;2022-11-15T11:13:32;37.15;;;16.67;;
5585;SDS011;2815;54.094;12.112;2022-11-15T11:16:07;34.70;;;16.23;;
5585;SDS011;2815;54.094;12.112;2022-11-15T11:18:44;31.25;;;16.27;;
5585;SDS011;2815;54.094;12.112;2022-11-15T11:21:18;32.20;;;16.30;;
5585;SDS011;2815;54.094;12.112;2022-11-15T11:24:02;31.42;;;15.52;;
5585;SDS011;2815;54.094;12.112;2022-11-15T11:26:39;34.47;;;15.52;;
5585;SDS011;2815;54.094;12.112;2022-11-15T11:29:17;32.10;;;16.05;;
5585;SDS011;2815;54.094;12.112;2022-11-15T11:31:52;31.75;;;15.73;;
5585;SDS011;2815;54.094;12.112;2022-11-15T11:34:29;29.52;;;16.23;;
5585;SDS011;2815;54.094;12.112;2022-11-15T11:37:09;28.50;;;15.25;;
5585;SDS011;2815;54.094;12.112;2022-11-15T11:42:14;28.85;;;14.38;;
5585;SDS011;2815;54.094;12.112;2022-11-15T11:44:50;26.52;;;14.30;;
5585;SDS011;2815;54.094;12.112;2022-11-15T11:47:22;29.05;;;15.82;;
5585;SDS011;2815;54.094;12.112;2022-11-15T11:49:52;29.60;;;14.63;;
5585;SDS011;2815;54.094;12.112;2022-11-15T11:52:23;30.08;;;14.52;;
5585;SDS011;2815;54.094;12.112;2022-11-15T11:55:00;30.08;;;15.13;;
5585;SDS011;2815;54.094;12.112;2022-11-15T11:57:32;32.22;;;16.00;;
5585;SDS011;2815;54.094;12.112;2022-11-15T12:00:04;29.83;;;15.70;;
5585;SDS011;2815;54.094;12.112;2022-11-15T12:02:43;29.92;;;14.65;;
5585;SDS011;2815;54.094;12.112;2022-11-15T12:05:16;33.50;;;15.80;;
5585;SDS011;2815;54.094;12.112;2022-11-15T12:07:48;28.10;;;15.63;;
5585;SDS011;2815;54.094;12.112;2022-11-15T12:10:20;29.23;;;15.45;;
5585;SDS011;2815;54.094;12.112;2022-11-15T12:15:22;34.15;;;15.27;;
5585;SDS011;2815;54.094;12.112;2022-11-15T12:17:52;34.05;;;16.42;;
5585;SDS011;2815;54.094;12.112;2022-11-15T12:20:23;29.70;;;14.68;;
5585;SDS011;2815;54.094;12.112;2022-11-15T12:22:53;28.60;;;14.77;;
5585;SDS011;2815;54.094;12.112;2022-11-15T12:25:27;34.15;;;16.05;;
5585;SDS011;2815;54.094;12.112;2022-11-15T12:28:00;29.58;;;15.05;;
5585;SDS011;2815;54.094;12.112;2022-11-15T12:30:40;29.67;;;16.27;;
5585;SDS011;2815;54.094;12.112;2022-11-15T12:36:02;32.22;;;15.98;;
5585;SDS011;2815;54.094;12.112;2022-11-15T12:38:52;37.65;;;15.35;;
5585;SDS011;2815;54.094;12.112;2022-11-15T12:41:24;30.95;;;15.82;;
5585;SDS011;2815;54.094;12.112;2022-11-15T12:43:53;34.47;;;16.20;;
5585;SDS011;2815;54.094;12.112;2022-11-15T12:46:22;32.22;;;13.95;;
5585;SDS011;2815;54.094;12.112;2022-11-15T12:52:12;27.52;;;13.80;;
5585;SDS011;2815;54.094;12.112;2022-11-15T12:54:56;29.35;;;15.43;;
5585;SDS011;2815;54.094;12.112;2022-11-15T12:57:29;31.98;;;15.13;;
5585;SDS011;2815;54.094;12.112;2022-11-15T13:02:29;26.38;;;14.45;;
5585;SDS011;2815;54.094;12.112;2022-11-15T13:14:12;29.17;;;14.02;;
5585;SDS011;2815;54.094;12.112;2022-11-15T13:19:58;27.73;;;14.23;;
5585;SDS011;2815;54.094;12.112;2022-11-15T13:22:40;24.88;;;13.57;;
5585;SDS011;2815;54.094;12.112;2022-11-15T13:25:19;29.67;;;13.88;;
5585;SDS011;2815;54.094;12.112;2022-11-15T13:28:10;27.75;;;14.48;;
5585;SDS011;2815;54.094;12.112;2022-11-15T13:30:50;24.45;;;13.65;;
5585;SDS011;2815;54.094;12.112;2022-11-15T13:33:20;26.00;;;14.60;;
5585;SDS011;2815;54.094;12.112;2022-11-15T13:35:49;26.88;;;13.68;;
5585;SDS011;2815;54.094;12.112;2022-11-15T13:38:19;31.40;;;14.68;;
5585;SDS011;2815;54.094;12.112;2022-11-15T13:40:54;25.75;;;13.73;;
5585;SDS011;2815;54.094;12.112;2022-11-15T13:43:33;31.23;;;15.57;;
5585;SDS011;2815;54.094;12.112;2022-11-15T13:46:07;30.17;;;15.07;;
5585;SDS011;2815;54.094;12.112;2022-11-15T13:48:38;31.83;;;14.98;;
5585;SDS011;2815;54.094;12.112;2022-11-15T13:51:08;27.08;;;15.00;;
5585;SDS011;2815;54.094;12.112;2022-11-15T13:56:08;28.15;;;14.48;;
5585;SDS011;2815;54.094;12.112;2022-11-15T13:58:37;32.22;;;15.48;;
5585;SDS011;2815;54.094;12.112;2022-11-15T14:01:11;30.20;;;15.32;;
5585;SDS011;2815;54.094;12.112;2022-11-15T14:03:46;28.75;;;14.57;;
5585;SDS011;2815;54.094;12.112;2022-11-15T14:06:17;27.58;;;13.90;;
5585;SDS011;2815;54.094;12.112;2022-11-15T14:09:04;28.45;;;14.40;;
5585;SDS011;2815;54.094;12.112;2022-11-15T14:11:51;29.75;;;13.23;;
5585;SDS011;2815;54.094;12.112;2022-11-15T14:14:20;30.70;;;13.30;;
5585;SDS011;2815;54.094;12.112;2022-11-15T14:16:51;29.08;;;14.23;;
5585;SDS011;2815;54.094;12.112;2022-11-15T14:19:33;29.58;;;14.18;;
5585;SDS011;2815;54.094;12.112;2022-11-15T14:22:16;27.30;;;13.93;;
5585;SDS011;2815;54.094;12.112;2022-11-15T14:24:47;38.08;;;14.95;;
5585;SDS011;2815;54.094;12.112;2022-11-15T14:27:30;27.17;;;14.45;;
5585;SDS011;2815;54.094;12.112;2022-11-15T14:29:59;32.25;;;15.15;;
5585;SDS011;2815;54.094;12.112;2022-11-15T14:32:29;36.45;;;15.48;;
5585;SDS011;2815;54.094;12.112;2022-11-15T14:34:58;37.67;;;15.02;;
5585;SDS011;2815;54.094;12.112;2022-11-15T14:37:27;33.65;;;15.90;;
5585;SDS011;2815;54.094;12.112;2022-11-15T14:39:57;34.53;;;14.60;;
5585;SDS011;2815;54.094;12.112;2022-11-15T14:42:25;39.47;;;15.73;;
5585;SDS011;2815;54.094;12.112;2022-11-15T14:44:53;33.65;;;15.95;;
5585;SDS011;2815;54.094;12.112;2022-11-15T14:47:21;36.95;;;15.70;;
5585;SDS011;2815;54.094;12.112;2022-11-15T14:49:50;33.90;;;14.50;;
5585;SDS011;2815;54.094;12.112;2022-11-15T14:52:23;31.13;;;14.00;;
5585;SDS011;2815;54.094;12.112;2022-11-15T14:54:58;30.73;;;13.77;;
5585;SDS011;2815;54.094;12.112;2022-11-15T14:57:27;38.92;;;15.55;;
5585;SDS011;2815;54.094;12.112;2022-11-15T14:59:55;35.50;;;15.77;;
5585;SDS011;2815;54.094;12.112;2022-11-15T15:02:37;32.85;;;13.98;;
5585;SDS011;2815;54.094;12.112;2022-11-15T15:05:13;33.05;;;13.68;;
5585;SDS011;2815;54.094;12.112;2022-11-15T15:07:42;34.03;;;15.57;;
5585;SDS011;2815;54.094;12.112;2022-11-15T15:10:11;39.20;;;16.85;;
5585;SDS011;2815;54.094;12.112;2022-11-15T15:13:00;37.35;;;16.67;;
5585;SDS011;2815;54.094;12.112;2022-11-15T15:15:31;40.47;;;16.55;;
5585;SDS011;2815;54.094;12.112;2022-11-15T15:18:00;38.60;;;16.42;;
5585;SDS011;2815;54.094;12.112;2022-11-15T15:20:30;43.20;;;17.02;;
5585;SDS011;2815;54.094;12.112;2022-11-15T15:22:58;34.15;;;14.32;;
5585;SDS011;2815;54.094;12.112;2022-11-15T15:25:26;39.83;;;16.65;;
5585;SDS011;2815;54.094;12.112;2022-11-15T15:27:55;45.92;;;18.33;;
5585;SDS011;2815;54.094;12.112;2022-11-15T15:30:24;45.90;;;17.85;;
5585;SDS011;2815;54.094;12.112;2022-11-15T15:32:53;49.97;;;19.58;;
5585;SDS011;2815;54.094;12.112;2022-11-15T15:35:21;39.55;;;17.20;;
5585;SDS011;2815;54.094;12.112;2022-11-15T15:37:51;45.47;;;17.85;;
5585;SDS011;2815;54.094;12.112;2022-11-15T15:40:19;44.85;;;17.40;;
5585;SDS011;2815;54.094;12.112;2022-11-15T15:42:48;47.80;;;18.75;;
5585;SDS011;2815;54.094;12.112;2022-11-15T15:45:17;46.20;;;18.10;;
5585;SDS011;2815;54.094;12.112;2022-11-15T15:47:45;53.72;;;19.13;;
5585;SDS011;2815;54.094;12.112;2022-11-15T15:50:22;43.90;;;17.90;;
5585;SDS011;2815;54.094;12.112;2022-11-15T15:52:53;47.45;;;17.90;;
5585;SDS011;2815;54.094;12.112;2022-11-15T15:55:22;47.90;;;18.70;;
5585;SDS011;2815;54.094;12.112;2022-11-15T15:57:50;52.90;;;18.23;;
5585;SDS011;2815;54.094;12.112;2022-11-15T16:00:19;53.55;;;20.67;;
5585;SDS011;2815;54.094;12.112;2022-11-15T16:02:47;44.45;;;16.20;;
5585;SDS011;2815;54.094;12.112;2022-11-15T16:05:15;47.15;;;18.73;;
5585;SDS011;2815;54.094;12.112;2022-11-15T16:07:43;58.67;;;20.17;;
5585;SDS011;2815;54.094;12.112;2022-11-15T16:10:18;48.60;;;18.85;;
5585;SDS011;2815;54.094;12.112;2022-11-15T16:12:48;46.97;;;19.50;;
5585;SDS011;2815;54.094;12.112;2022-11-15T16:15:16;52.60;;;20.15;;
5585;SDS011;2815;54.094;12.112;2022-11-15T16:17:47;45.53;;;18.95;;
5585;SDS011;2815;54.094;12.112;2022-11-15T16:20:23;57.63;;;20.60;;
5585;SDS011;2815;54.094;12.112;2022-11-15T16:23:04;53.78;;;19.65;;
5585;SDS011;2815;54.094;12.112;2022-11-15T16:25:40;50.47;;;19.02;;
5585;SDS011;2815;54.094;12.112;2022-11-15T16:28:14;49.33;;;17.30;;
5585;SDS011;2815;54.094;12.112;2022-11-15T16:30:44;52.33;;;19.23;;
5585;SDS011;2815;54.094;12.112;2022-11-15T16:33:17;45.95;;;17.40;;
5585;SDS011;2815;54.094;12.112;2022-11-15T16:35:46;40.55;;;15.65;;
5585;SDS011;2815;54.094;12.112;2022-11-15T16:38:14;55.72;;;17.70;;
5585;SDS011;2815;54.094;12.112;2022-11-15T16:40:44;64.50;;;20.73;;
5585;SDS011;2815;54.094;12.112;2022-11-15T16:43:12;56.78;;;18.92;;
5585;SDS011;2815;54.094;12.112;2022-11-15T16:45:40;57.78;;;20.48;;
5585;SDS011;2815;54.094;12.112;2022-11-15T16:48:11;56.33;;;18.35;;
5585;SDS011;2815;54.094;12.112;2022-11-15T16:50:48;60.65;;;19.23;;